Time;durP1;ratioP1;P1;durP2;ratioP2;P2;SDS_P1;SDS_P2;PMS_P1;PMS_P2;Temp;Humidity;BMP_temperature;BMP_pressure;BME280_temperature;BME280_humidity;BME280_pressure;Samples;Min_cycle;Max_cycle;Signal;HPM_P1;HPM_P2
2021/05/31 00:01:53;;;;;;;11.18;9.02;;;;;;;;;;5094091;28;20028;-73
2021/05/31 00:04:19;;;;;;;9.65;8.73;;;;;;;;;;5093831;28;20028;-73
2021/05/31 00:06:49;;;;;;;8.07;7.10;;;;;;;;;;5093636;28;20477;-74
2021/05/31 00:09:15;;;;;;;10.00;9.00;;;;;;;;;;5093177;28;20470;-73
2021/05/31 00:11:41;;;;;;;9.02;7.47;;;;;;;;;;5093824;28;20035;-73
2021/05/31 00:14:07;;;;;;;9.13;7.45;;;;;;;;;;5093687;28;20067;-73
2021/05/31 00:16:34;;;;;;;9.52;7.88;;;;;;;;;;5093577;28;20031;-73
2021/05/31 00:19:00;;;;;;;8.70;7.78;;;;;;;;;;5093688;28;20025;-73
2021/05/31 00:21:26;;;;;;;9.52;8.57;;;;;;;;;;5093557;28;20056;-73
2021/05/31 00:23:52;;;;;;;9.73;8.73;;;;;;;;;;5093932;28;20028;-73
2021/05/31 00:26:18;;;;;;;11.27;9.00;;;;;;;;;;5093327;28;20089;-73
2021/05/31 00:28:44;;;;;;;10.43;8.73;;;;;;;;;;5093951;28;20416;-73
2021/05/31 00:31:11;;;;;;;9.98;7.82;;;;;;;;;;5093938;28;20021;-73
2021/05/31 00:33:37;;;;;;;9.38;8.35;;;;;;;;;;5093617;28;20024;-73
2021/05/31 00:36:03;;;;;;;8.32;7.53;;;;;;;;;;5093418;28;20028;-73
2021/05/31 00:38:29;;;;;;;8.85;7.95;;;;;;;;;;5093391;28;20032;-73
2021/05/31 00:40:55;;;;;;;8.93;8.13;;;;;;;;;;5093779;28;20445;-72
2021/05/31 00:43:21;;;;;;;9.05;8.20;;;;;;;;;;5093420;28;20057;-73
2021/05/31 00:45:48;;;;;;;9.02;8.13;;;;;;;;;;5093249;28;20020;-73
2021/05/31 00:48:15;;;;;;;9.10;8.20;;;;;;;;;;5093080;28;20498;-74
2021/05/31 00:50:43;;;;;;;9.07;8.05;;;;;;;;;;5092852;28;20100;-73
2021/05/31 00:53:09;;;;;;;9.00;8.18;;;;;;;;;;5093586;28;20020;-73
2021/05/31 00:55:35;;;;;;;8.70;7.80;;;;;;;;;;5093674;28;20070;-73
2021/05/31 00:58:01;;;;;;;15.57;8.35;;;;;;;;;;5093654;28;20099;-73
2021/05/31 01:00:27;;;;;;;9.90;8.35;;;;;;;;;;5093063;28;20036;-73
2021/05/31 01:02:53;;;;;;;9.45;8.18;;;;;;;;;;5093389;28;20024;-73
2021/05/31 01:05:22;;;;;;;11.13;8.05;;;;;;;;;;5093188;28;20035;-75
2021/05/31 01:07:49;;;;;;;10.43;8.70;;;;;;;;;;5093430;28;20046;-73
2021/05/31 01:10:22;;;;;;;10.32;8.00;;;;;;;;;;5093169;28;20489;-73
2021/05/31 01:13:08;;;;;;;12.65;9.00;;;;;;;;;;5093550;28;20032;-73
2021/05/31 01:15:36;;;;;;;8.93;8.00;;;;;;;;;;5078383;28;20036;-73
2021/05/31 01:18:11;;;;;;;10.27;8.00;;;;;;;;;;5092821;28;20020;-73
2021/05/31 01:20:57;;;;;;;9.70;8.13;;;;;;;;;;5095606;28;20024;-73
2021/05/31 01:23:24;;;;;;;9.25;8.30;;;;;;;;;;5082219;28;20027;-73
2021/05/31 01:25:59;;;;;;;8.40;7.60;;;;;;;;;;5096860;28;20028;-73
2021/05/31 01:28:45;;;;;;;8.98;8.07;;;;;;;;;;5096258;28;20107;-73
2021/05/31 01:31:11;;;;;;;9.57;8.57;;;;;;;;;;5082062;28;20020;-73
2021/05/31 01:33:37;;;;;;;8.23;7.53;;;;;;;;;;5096939;28;20028;-73
2021/05/31 01:36:03;;;;;;;9.27;8.27;;;;;;;;;;5096462;28;20465;-73
2021/05/31 01:38:30;;;;;;;9.88;8.90;;;;;;;;;;5096523;28;20024;-73
2021/05/31 01:40:56;;;;;;;9.05;8.15;;;;;;;;;;5096259;28;20031;-73
2021/05/31 01:43:22;;;;;;;10.40;8.18;;;;;;;;;;5097070;28;20032;-73
2021/05/31 01:45:48;;;;;;;9.80;8.80;;;;;;;;;;5096568;28;20039;-72
2021/05/31 01:48:14;;;;;;;9.23;8.32;;;;;;;;;;5096437;28;20034;-74
2021/05/31 01:50:40;;;;;;;9.02;7.75;;;;;;;;;;5096305;28;20016;-73
2021/05/31 01:53:06;;;;;;;9.50;8.55;;;;;;;;;;5096608;28;20026;-72
2021/05/31 01:55:32;;;;;;;8.60;7.72;;;;;;;;;;5096000;28;20043;-73
2021/05/31 01:57:58;;;;;;;8.88;7.97;;;;;;;;;;5096086;28;20468;-73
2021/05/31 02:00:25;;;;;;;9.23;8.30;;;;;;;;;;5096252;28;20031;-73
2021/05/31 02:02:52;;;;;;;8.90;7.65;;;;;;;;;;5096601;28;20027;-73
2021/05/31 02:05:18;;;;;;;10.52;9.52;;;;;;;;;;5096476;28;20028;-73
2021/05/31 02:07:44;;;;;;;11.30;9.00;;;;;;;;;;5096083;28;20469;-76
2021/05/31 02:10:10;;;;;;;9.80;8.80;;;;;;;;;;5095661;28;20493;-76
2021/05/31 02:12:39;;;;;;;14.13;9.50;;;;;;;;;;5095454;28;20465;-75
2021/05/31 02:15:07;;;;;;;10.43;9.35;;;;;;;;;;5096347;28;20032;-76
2021/05/31 02:17:44;;;;;;;9.80;8.90;;;;;;;;;;5096081;28;20074;-76
2021/05/31 02:20:11;;;;;;;8.07;7.30;;;;;;;;;;5096135;28;20032;-76
2021/05/31 02:22:38;;;;;;;8.88;8.07;;;;;;;;;;5095578;28;20028;-76
2021/05/31 02:25:05;;;;;;;9.50;8.57;;;;;;;;;;5095563;28;20028;-76
2021/05/31 02:27:31;;;;;;;9.75;8.30;;;;;;;;;;5095676;28;20055;-76
2021/05/31 02:29:58;;;;;;;10.93;8.45;;;;;;;;;;5095913;28;20020;-76
2021/05/31 02:32:24;;;;;;;9.30;8.50;;;;;;;;;;5094463;28;20028;-75
2021/05/31 02:34:50;;;;;;;9.85;8.45;;;;;;;;;;5095336;28;20466;-76
2021/05/31 02:37:17;;;;;;;8.50;7.65;;;;;;;;;;5095400;28;20023;-78
2021/05/31 02:39:43;;;;;;;9.45;8.52;;;;;;;;;;5095228;28;20024;-76
2021/05/31 02:42:09;;;;;;;9.38;8.57;;;;;;;;;;5095408;28;20071;-76
2021/05/31 02:44:35;;;;;;;9.52;8.32;;;;;;;;;;5095082;28;20097;-76
2021/05/31 02:47:01;;;;;;;10.20;9.20;;;;;;;;;;5095380;28;20020;-76
2021/05/31 02:49:27;;;;;;;10.18;9.15;;;;;;;;;;5095091;28;20492;-77
2021/05/31 02:51:53;;;;;;;9.80;7.82;;;;;;;;;;5095327;28;20393;-75
2021/05/31 02:54:19;;;;;;;9.75;7.18;;;;;;;;;;5094741;28;20038;-76
2021/05/31 02:56:45;;;;;;;8.18;7.38;;;;;;;;;;5095114;28;20028;-76
2021/05/31 02:59:11;;;;;;;8.68;7.78;;;;;;;;;;5095057;28;20453;-76
2021/05/31 03:01:37;;;;;;;7.72;6.95;;;;;;;;;;5095008;28;20020;-72
2021/05/31 03:04:03;;;;;;;8.32;7.35;;;;;;;;;;5094988;28;20119;-72
2021/05/31 03:06:29;;;;;;;9.10;8.20;;;;;;;;;;5094443;28;20089;-77
2021/05/31 03:08:56;;;;;;;8.52;7.72;;;;;;;;;;5094633;28;20469;-77
2021/05/31 03:11:22;;;;;;;8.05;7.35;;;;;;;;;;5095263;28;20089;-76
2021/05/31 03:13:48;;;;;;;7.90;6.70;;;;;;;;;;5094828;28;20035;-76
2021/05/31 03:16:14;;;;;;;8.05;7.25;;;;;;;;;;5094775;28;20031;-75
2021/05/31 03:18:40;;;;;;;8.32;7.40;;;;;;;;;;5094639;28;20389;-72
2021/05/31 03:21:06;;;;;;;18.38;9.38;;;;;;;;;;5094658;28;20020;-73
2021/05/31 03:23:32;;;;;;;12.95;9.02;;;;;;;;;;5093154;28;20035;-72
2021/05/31 03:25:58;;;;;;;12.40;8.93;;;;;;;;;;5094800;28;20032;-72
2021/05/31 03:28:24;;;;;;;16.33;10.18;;;;;;;;;;5094425;28;20489;-72
2021/05/31 03:30:50;;;;;;;10.55;9.25;;;;;;;;;;5094732;28;20469;-72
2021/05/31 03:33:16;;;;;;;12.82;10.23;;;;;;;;;;5094331;28;20031;-72
2021/05/31 03:35:42;;;;;;;13.77;10.18;;;;;;;;;;5094474;28;20039;-74
2021/05/31 03:38:08;;;;;;;11.63;9.13;;;;;;;;;;5094079;28;20072;-73
2021/05/31 03:40:34;;;;;;;11.68;10.38;;;;;;;;;;5094244;28;20024;-72
2021/05/31 03:43:00;;;;;;;10.43;9.35;;;;;;;;;;5094185;28;20027;-72
2021/05/31 03:45:26;;;;;;;10.77;9.60;;;;;;;;;;5094141;28;20115;-72
2021/05/31 03:47:52;;;;;;;13.60;10.32;;;;;;;;;;5094145;28;20492;-72
2021/05/31 03:50:19;;;;;;;18.42;9.30;;;;;;;;;;5094085;28;20016;-73
2021/05/31 03:52:46;;;;;;;11.88;9.13;;;;;;;;;;5093498;28;20127;-72
2021/05/31 03:55:13;;;;;;;11.88;10.05;;;;;;;;;;5094034;28;20119;-72
2021/05/31 03:57:39;;;;;;;12.40;8.07;;;;;;;;;;5094187;28;20103;-72
2021/05/31 04:00:06;;;;;;;8.63;7.72;;;;;;;;;;5094072;28;20020;-72
2021/05/31 04:02:32;;;;;;;9.98;8.07;;;;;;;;;;5093676;28;20028;-72
2021/05/31 04:04:58;;;;;;;10.23;8.38;;;;;;;;;;5093937;28;20028;-73
2021/05/31 04:12:56;;;;;;;8.43;7.18;;;;;;;;;;5078841;28;20028;-72
2021/05/31 04:15:22;;;;;;;11.35;8.95;;;;;;;;;;5093887;28;20044;-72
2021/05/31 04:17:48;;;;;;;9.68;8.48;;;;;;;;;;5093379;28;20028;-73
2021/05/31 04:20:15;;;;;;;10.65;8.07;;;;;;;;;;5093440;28;20020;-73
2021/05/31 04:22:41;;;;;;;10.50;8.20;;;;;;;;;;5093776;28;20024;-72
2021/05/31 04:25:07;;;;;;;16.65;7.80;;;;;;;;;;5093511;28;20040;-72
2021/05/31 04:27:33;;;;;;;9.85;7.85;;;;;;;;;;5094019;28;20021;-72
2021/05/31 04:30:00;;;;;;;8.85;7.50;;;;;;;;;;5092375;28;20504;-73
2021/05/31 04:32:26;;;;;;;14.25;8.05;;;;;;;;;;5092811;28;20465;-72
2021/05/31 04:34:52;;;;;;;9.90;8.05;;;;;;;;;;5093354;28;20152;-72
2021/05/31 04:37:18;;;;;;;9.98;7.53;;;;;;;;;;5093190;28;20069;-72
2021/05/31 04:39:44;;;;;;;10.02;7.45;;;;;;;;;;5093018;28;20111;-72
2021/05/31 04:42:10;;;;;;;10.32;9.32;;;;;;;;;;5092984;28;20042;-73
2021/05/31 04:44:36;;;;;;;20.55;7.93;;;;;;;;;;5092648;28;20573;-72
2021/05/31 04:47:03;;;;;;;10.65;7.57;;;;;;;;;;5092955;28;20032;-74
2021/05/31 04:49:29;;;;;;;9.30;8.40;;;;;;;;;;5092891;28;20055;-72
2021/05/31 04:51:55;;;;;;;11.30;7.70;;;;;;;;;;5093251;28;20052;-75
2021/05/31 04:54:21;;;;;;;10.50;6.85;;;;;;;;;;5093581;28;20067;-72
2021/05/31 04:56:47;;;;;;;13.85;7.63;;;;;;;;;;5096875;28;20020;-72
2021/05/31 04:59:14;;;;;;;11.70;6.88;;;;;;;;;;5096940;28;20414;-73
2021/05/31 05:01:40;;;;;;;8.88;6.55;;;;;;;;;;5097288;28;20458;-72
2021/05/31 05:04:06;;;;;;;7.78;6.90;;;;;;;;;;5096990;28;20028;-73
2021/05/31 05:06:33;;;;;;;16.80;7.93;;;;;;;;;;5096515;28;20021;-75
2021/05/31 05:08:59;;;;;;;10.95;6.57;;;;;;;;;;5097706;28;20036;-73
2021/05/31 05:11:25;;;;;;;7.78;6.07;;;;;;;;;;5097143;28;20020;-74
2021/05/31 05:13:52;;;;;;;16.10;7.30;;;;;;;;;;5097023;28;20457;-72
2021/05/31 05:16:18;;;;;;;15.43;6.85;;;;;;;;;;5096299;28;20028;-74
2021/05/31 05:18:45;;;;;;;12.00;6.95;;;;;;;;;;5096084;28;20035;-73
2021/05/31 05:21:11;;;;;;;15.82;7.57;;;;;;;;;;5096681;28;20025;-72
2021/05/31 05:23:37;;;;;;;9.40;6.75;;;;;;;;;;5096910;28;20024;-73
2021/05/31 05:26:03;;;;;;;38.63;7.65;;;;;;;;;;5096355;28;20081;-73
2021/05/31 05:28:31;;;;;;;14.38;7.65;;;;;;;;;;5094957;28;20028;-73
2021/05/31 05:30:57;;;;;;;15.05;8.45;;;;;;;;;;5096726;28;20047;-72
2021/05/31 05:33:23;;;;;;;11.93;8.10;;;;;;;;;;5095667;28;20028;-72
2021/05/31 05:35:56;;;;;;;13.73;8.05;;;;;;;;;;5097098;28;20036;-72
2021/05/31 05:38:42;;;;;;;13.45;7.75;;;;;;;;;;5096777;28;20025;-72
2021/05/31 05:41:18;;;;;;;23.10;7.28;;;;;;;;;;5097094;28;20032;-73
2021/05/31 05:44:15;;;;;;;10.65;6.85;;;;;;;;;;5096841;28;20028;-72
2021/05/31 05:46:38;;;;;;;12.65;7.70;;;;;;;;;;5081571;28;20040;-72
2021/05/31 05:49:04;;;;;;;9.88;7.13;;;;;;;;;;5097022;28;20028;-72
2021/05/31 05:51:30;;;;;;;10.68;8.73;;;;;;;;;;5096224;28;20093;-72
2021/05/31 05:53:58;;;;;;;9.10;7.07;;;;;;;;;;5096719;28;20032;-72
2021/05/31 05:56:24;;;;;;;12.35;7.47;;;;;;;;;;5096378;28;20016;-70
2021/05/31 05:58:52;;;;;;;8.55;7.68;;;;;;;;;;5096954;28;20026;-71
2021/05/31 06:01:19;;;;;;;12.30;7.50;;;;;;;;;;5096446;28;20058;-71
2021/05/31 06:03:47;;;;;;;8.13;7.30;;;;;;;;;;5096718;28;20103;-72
2021/05/31 06:06:13;;;;;;;8.77;6.85;;;;;;;;;;5094732;28;20020;-87
2021/05/31 06:08:39;;;;;;;10.30;8.05;;;;;;;;;;5096006;28;20546;-71
2021/05/31 06:11:05;;;;;;;9.75;6.82;;;;;;;;;;5096554;28;20020;-72
2021/05/31 06:13:31;;;;;;;7.05;6.40;;;;;;;;;;5096595;28;20032;-74
2021/05/31 06:16:00;;;;;;;12.98;7.72;;;;;;;;;;5096371;28;20084;-74
2021/05/31 06:18:26;;;;;;;9.95;7.57;;;;;;;;;;5096038;28;20026;-73
2021/05/31 06:20:52;;;;;;;9.55;6.88;;;;;;;;;;5096907;28;20369;-77
2021/05/31 06:23:18;;;;;;;11.27;7.43;;;;;;;;;;5096421;28;20035;-74
2021/05/31 06:25:44;;;;;;;9.27;7.63;;;;;;;;;;5097355;28;20028;-76
2021/05/31 06:28:10;;;;;;;9.38;8.48;;;;;;;;;;5097495;28;20024;-76
2021/05/31 06:30:36;;;;;;;10.00;8.80;;;;;;;;;;5096730;28;20020;-71
2021/05/31 06:33:02;;;;;;;9.30;8.40;;;;;;;;;;5096158;28;20107;-76
2021/05/31 06:35:29;;;;;;;8.60;7.78;;;;;;;;;;5096277;28;20040;-78
2021/05/31 06:37:55;;;;;;;8.32;7.57;;;;;;;;;;5096386;28;20031;-75
2021/05/31 06:40:21;;;;;;;11.27;7.88;;;;;;;;;;5096480;28;20028;-75
2021/05/31 06:42:47;;;;;;;10.07;9.07;;;;;;;;;;5096637;28;20024;-73
2021/05/31 06:45:16;;;;;;;9.90;9.10;;;;;;;;;;5095652;28;20073;-72
2021/05/31 06:47:42;;;;;;;10.00;9.10;;;;;;;;;;5095452;28;20115;-71
2021/05/31 06:50:08;;;;;;;12.25;8.77;;;;;;;;;;5095105;28;20089;-71
2021/05/31 06:52:35;;;;;;;9.48;8.52;;;;;;;;;;5095307;28;20139;-72
2021/05/31 06:55:02;;;;;;;11.73;8.77;;;;;;;;;;5095198;28;20032;-72
2021/05/31 06:57:28;;;;;;;9.45;8.55;;;;;;;;;;5096200;28;20058;-73
2021/05/31 06:59:54;;;;;;;12.32;8.98;;;;;;;;;;5096368;28;20033;-72
2021/05/31 07:02:20;;;;;;;14.43;9.23;;;;;;;;;;5095797;28;20096;-73
2021/05/31 07:04:46;;;;;;;9.23;8.32;;;;;;;;;;5095757;28;20115;-73
2021/05/31 07:07:12;;;;;;;9.68;8.68;;;;;;;;;;5095875;28;20020;-72
2021/05/31 07:09:38;;;;;;;10.35;8.40;;;;;;;;;;5096904;28;20020;-81
2021/05/31 07:12:04;;;;;;;10.82;8.70;;;;;;;;;;5096401;28;20546;-72
2021/05/31 07:14:33;;;;;;;9.95;9.05;;;;;;;;;;5095376;28;20171;-73
2021/05/31 07:17:00;;;;;;;9.57;8.68;;;;;;;;;;5095304;28;20025;-73
2021/05/31 07:19:26;;;;;;;9.07;8.23;;;;;;;;;;5096693;28;20085;-74
2021/05/31 07:21:52;;;;;;;12.25;9.40;;;;;;;;;;5095757;28;20156;-75
2021/05/31 07:24:18;;;;;;;10.90;9.35;;;;;;;;;;5095923;28;20075;-76
2021/05/31 07:26:45;;;;;;;9.70;8.68;;;;;;;;;;5095945;28;20020;-72
2021/05/31 07:29:11;;;;;;;9.23;8.13;;;;;;;;;;5095116;28;20469;-73
2021/05/31 07:31:37;;;;;;;8.23;7.53;;;;;;;;;;5094634;28;20051;-71
2021/05/31 07:34:03;;;;;;;11.65;9.95;;;;;;;;;;5094238;28;20032;-72
2021/05/31 07:36:29;;;;;;;8.98;8.18;;;;;;;;;;5094275;28;20024;-72
2021/05/31 07:38:56;;;;;;;8.65;7.82;;;;;;;;;;5095108;28;20077;-70
2021/05/31 07:41:22;;;;;;;9.00;7.22;;;;;;;;;;5094759;28;20027;-71
2021/05/31 07:43:48;;;;;;;9.50;8.50;;;;;;;;;;5094613;28;20378;-69
2021/05/31 07:46:14;;;;;;;8.73;7.50;;;;;;;;;;5094369;28;20024;-73
2021/05/31 07:48:41;;;;;;;11.20;8.23;;;;;;;;;;5094793;28;20031;-72
2021/05/31 07:51:25;;;;;;;8.90;8.20;;;;;;;;;;5094707;28;20508;-70
2021/05/31 07:53:52;;;;;;;12.82;9.07;;;;;;;;;;5094526;28;20039;-69
2021/05/31 07:56:19;;;;;;;8.27;7.40;;;;;;;;;;5094881;28;20497;-71
2021/05/31 07:58:47;;;;;;;8.23;7.22;;;;;;;;;;5095881;28;20405;-72
2021/05/31 08:01:13;;;;;;;9.80;8.77;;;;;;;;;;5094739;28;20074;-70
2021/05/31 08:03:39;;;;;;;8.13;7.38;;;;;;;;;;5093683;28;20024;-72
2021/05/31 08:06:05;;;;;;;9.10;7.70;;;;;;;;;;5094191;28;20350;-71
2021/05/31 08:08:31;;;;;;;7.80;7.10;;;;;;;;;;5094194;28;20039;-72
2021/05/31 08:10:57;;;;;;;9.15;7.88;;;;;;;;;;5094595;28;20024;-70
2021/05/31 08:13:24;;;;;;;11.75;8.38;;;;;;;;;;5094183;28;20378;-70
2021/05/31 08:15:51;;;;;;;23.10;8.55;;;;;;;;;;5094651;28;20526;-74
2021/05/31 08:18:17;;;;;;;9.95;8.27;;;;;;;;;;5094064;28;20024;-72
2021/05/31 08:20:43;;;;;;;13.77;8.13;;;;;;;;;;5094776;28;20020;-72
2021/05/31 08:23:09;;;;;;;20.67;8.00;;;;;;;;;;5095277;28;20051;-72
2021/05/31 08:25:35;;;;;;;10.77;7.82;;;;;;;;;;5095146;28;20027;-72
2021/05/31 08:28:03;;;;;;;12.88;7.63;;;;;;;;;;5095086;28;20074;-72
2021/05/31 08:30:29;;;;;;;9.02;8.13;;;;;;;;;;5093931;28;20031;-73
2021/05/31 08:32:57;;;;;;;19.10;8.77;;;;;;;;;;5094562;28;20024;-73
2021/05/31 08:35:23;;;;;;;9.52;8.55;;;;;;;;;;5095426;28;20036;-74
2021/05/31 08:37:49;;;;;;;12.55;7.43;;;;;;;;;;5095139;28;20069;-72
2021/05/31 08:40:15;;;;;;;19.08;8.85;;;;;;;;;;5094930;28;20024;-74
2021/05/31 08:42:41;;;;;;;35.58;18.58;;;;;;;;;;5095055;28;20039;-72
2021/05/31 08:45:08;;;;;;;37.45;20.83;;;;;;;;;;5094725;28;20032;-72
2021/05/31 08:50:36;;;;;;;60.03;30.00;;;;;;;;;;5112066;27;1278944;-74
2021/05/31 08:53:02;;;;;;;42.90;25.25;;;;;;;;;;5133248;28;20084;-74
2021/05/31 08:55:29;;;;;;;20.83;15.85;;;;;;;;;;5133543;28;20020;-73
2021/05/31 08:57:55;;;;;;;25.40;17.25;;;;;;;;;;5133244;28;20058;-76
2021/05/31 09:00:24;;;;;;;30.25;19.25;;;;;;;;;;5133127;28;20027;-75
2021/05/31 09:02:50;;;;;;;26.05;18.00;;;;;;;;;;5133164;27;20034;-73
2021/05/31 09:05:16;;;;;;;24.02;17.30;;;;;;;;;;5133451;28;20027;-72
2021/05/31 09:07:47;;;;;;;24.48;16.58;;;;;;;;;;5132630;28;20099;-75
2021/05/31 09:10:13;;;;;;;22.23;15.57;;;;;;;;;;5131909;28;20024;-72
2021/05/31 09:12:39;;;;;;;23.00;14.82;;;;;;;;;;5131380;28;20503;-73
2021/05/31 09:15:07;;;;;;;23.17;14.07;;;;;;;;;;5131966;28;20104;-73
2021/05/31 09:17:34;;;;;;;24.33;15.35;;;;;;;;;;5133081;28;20024;-75
2021/05/31 09:20:00;;;;;;;18.17;13.35;;;;;;;;;;5132404;28;20043;-75
2021/05/31 09:22:28;;;;;;;16.25;13.60;;;;;;;;;;5132769;28;20027;-73
2021/05/31 09:24:55;;;;;;;17.08;12.23;;;;;;;;;;5131636;27;20027;-76
2021/05/31 09:27:21;;;;;;;20.70;14.57;;;;;;;;;;5132231;28;20062;-73
2021/05/31 09:30:04;;;;;;;19.17;13.55;;;;;;;;;;5131858;28;20077;-73
2021/05/31 09:32:30;;;;;;;18.33;13.25;;;;;;;;;;5131793;28;20028;-72
2021/05/31 09:35:07;;;;;;;16.05;12.57;;;;;;;;;;5131443;28;20054;-73
2021/05/31 09:37:35;;;;;;;13.98;11.80;;;;;;;;;;5131240;27;20353;-74
2021/05/31 09:40:03;;;;;;;16.35;11.73;;;;;;;;;;5131142;27;20027;-73
2021/05/31 09:42:30;;;;;;;16.30;11.38;;;;;;;;;;5131778;28;20085;-72
2021/05/31 09:45:00;;;;;;;13.80;10.43;;;;;;;;;;5131724;28;20037;-73
2021/05/31 09:47:27;;;;;;;14.27;10.73;;;;;;;;;;5132063;28;20024;-73
2021/05/31 09:49:55;;;;;;;13.05;10.65;;;;;;;;;;5131813;27;20096;-74
2021/05/31 09:52:21;;;;;;;14.38;10.80;;;;;;;;;;5131054;28;20052;-76
2021/05/31 09:54:48;;;;;;;18.80;11.30;;;;;;;;;;5131127;28;20024;-72
2021/05/31 09:57:17;;;;;;;14.77;10.18;;;;;;;;;;5130974;28;20015;-73
2021/05/31 09:59:45;;;;;;;21.77;10.77;;;;;;;;;;5132154;27;20054;-76
2021/05/31 10:02:15;;;;;;;12.80;11.40;;;;;;;;;;5117503;28;20473;-76
2021/05/31 10:04:56;;;;;;;15.23;12.70;;;;;;;;;;5117163;28;20119;-73
2021/05/31 10:07:37;;;;;;;15.27;10.93;;;;;;;;;;5117122;28;20039;-71
2021/05/31 10:10:03;;;;;;;20.25;13.13;;;;;;;;;;5116994;28;20019;-70
2021/05/31 10:12:29;;;;;;;14.63;11.48;;;;;;;;;;5117316;28;20401;-70
2021/05/31 10:14:56;;;;;;;19.67;11.43;;;;;;;;;;5116410;28;20012;-70
2021/05/31 10:17:24;;;;;;;14.52;11.50;;;;;;;;;;5116408;28;20099;-70
2021/05/31 10:19:50;;;;;;;18.58;12.23;;;;;;;;;;5116175;28;20484;-69
2021/05/31 10:22:17;;;;;;;12.52;11.27;;;;;;;;;;5116733;28;20047;-72
2021/05/31 10:24:43;;;;;;;15.05;10.98;;;;;;;;;;5117689;28;20462;-73
2021/05/31 10:27:11;;;;;;;15.45;11.60;;;;;;;;;;5116629;28;20024;-72
2021/05/31 10:29:40;;;;;;;12.18;10.18;;;;;;;;;;5116648;28;20542;-72
2021/05/31 10:32:07;;;;;;;11.90;9.65;;;;;;;;;;5116440;28;20130;-72
2021/05/31 10:34:43;;;;;;;15.90;9.98;;;;;;;;;;5116249;28;20032;-72
2021/05/31 10:37:16;;;;;;;13.82;10.52;;;;;;;;;;5117220;28;20027;-72
2021/05/31 10:39:42;;;;;;;11.48;9.02;;;;;;;;;;5116715;28;20036;-72
2021/05/31 10:42:09;;;;;;;11.02;9.85;;;;;;;;;;5116413;28;20489;-72
2021/05/31 10:44:35;;;;;;;15.77;10.32;;;;;;;;;;5115516;28;20030;-73
2021/05/31 10:47:08;;;;;;;12.30;9.70;;;;;;;;;;5116539;28;20020;-73
2021/05/31 10:49:34;;;;;;;18.77;10.05;;;;;;;;;;5116128;28;20045;-72
2021/05/31 10:52:00;;;;;;;9.90;8.90;;;;;;;;;;5116139;28;20067;-72
2021/05/31 10:54:26;;;;;;;15.23;8.93;;;;;;;;;;5115493;28;20171;-72
2021/05/31 10:56:54;;;;;;;11.32;8.88;;;;;;;;;;5115901;28;20110;-73
2021/05/31 10:59:21;;;;;;;12.75;9.25;;;;;;;;;;5115440;28;20043;-73
2021/05/31 11:01:47;;;;;;;8.95;8.05;;;;;;;;;;5115760;28;20106;-70
2021/05/31 11:04:23;;;;;;;8.88;7.93;;;;;;;;;;5115675;28;20042;-70
2021/05/31 11:06:50;;;;;;;10.65;8.02;;;;;;;;;;5115670;28;20374;-72
2021/05/31 11:09:19;;;;;;;10.27;8.13;;;;;;;;;;5115771;28;20410;-72
2021/05/31 11:11:48;;;;;;;9.48;7.93;;;;;;;;;;5114594;27;20134;-72
2021/05/31 11:14:14;;;;;;;14.18;8.40;;;;;;;;;;5114974;28;20510;-75
2021/05/31 11:16:56;;;;;;;11.52;8.82;;;;;;;;;;5115274;28;20027;-69
2021/05/31 11:19:39;;;;;;;8.52;7.72;;;;;;;;;;5115328;28;20098;-70
2021/05/31 11:22:22;;;;;;;8.25;7.45;;;;;;;;;;5115393;28;20027;-74
2021/05/31 11:24:52;;;;;;;8.63;7.72;;;;;;;;;;5116016;28;20026;-70
2021/05/31 11:27:22;;;;;;;7.00;6.40;;;;;;;;;;5115945;28;20144;-72
2021/05/31 11:29:49;;;;;;;8.00;7.15;;;;;;;;;;5097450;28;20510;-70
2021/05/31 11:32:18;;;;;;;8.45;7.03;;;;;;;;;;5112493;28;20111;-71
2021/05/31 11:34:55;;;;;;;8.32;6.88;;;;;;;;;;5114018;28;20116;-71
2021/05/31 11:37:22;;;;;;;8.05;7.10;;;;;;;;;;5115078;28;20042;-70
2021/05/31 11:39:48;;;;;;;11.07;7.30;;;;;;;;;;5099500;28;20040;-70
2021/05/31 11:42:14;;;;;;;11.98;7.10;;;;;;;;;;5094092;28;20021;-79
2021/05/31 11:44:40;;;;;;;20.60;6.22;;;;;;;;;;5095138;28;20028;-72
2021/05/31 11:47:06;;;;;;;18.02;6.45;;;;;;;;;;5095080;28;20027;-76
2021/05/31 11:49:39;;;;;;;9.52;6.70;;;;;;;;;;5093483;28;20044;-76
2021/05/31 11:52:07;;;;;;;9.50;7.38;;;;;;;;;;5094875;28;20020;-74
2021/05/31 11:54:34;;;;;;;8.40;6.22;;;;;;;;;;5093829;28;20024;-75
2021/05/31 11:57:01;;;;;;;9.15;6.13;;;;;;;;;;5094067;28;20031;-76
2021/05/31 11:59:32;;;;;;;8.38;7.53;;;;;;;;;;5102386;28;20038;-74
2021/05/31 12:01:58;;;;;;;10.25;6.32;;;;;;;;;;5115760;28;20023;-78
2021/05/31 12:04:27;;;;;;;7.50;6.63;;;;;;;;;;5115239;28;20028;-76
2021/05/31 12:07:06;;;;;;;8.70;6.05;;;;;;;;;;5115856;28;20372;-76
2021/05/31 12:09:32;;;;;;;9.20;6.00;;;;;;;;;;5102671;28;20562;-77
2021/05/31 12:11:58;;;;;;;6.20;5.57;;;;;;;;;;5094270;28;20142;-76
2021/05/31 12:14:26;;;;;;;11.13;6.03;;;;;;;;;;5094641;28;20099;-75
2021/05/31 12:16:52;;;;;;;6.43;5.82;;;;;;;;;;5094770;28;20024;-75
2021/05/31 12:19:18;;;;;;;5.00;4.50;;;;;;;;;;5093542;28;20488;-76
2021/05/31 12:21:45;;;;;;;12.93;6.80;;;;;;;;;;5094490;28;20070;-79
2021/05/31 12:24:11;;;;;;;11.50;5.28;;;;;;;;;;5094198;28;20066;-75
2021/05/31 12:26:39;;;;;;;10.77;7.10;;;;;;;;;;5093985;28;20055;-72
2021/05/31 12:29:10;;;;;;;10.10;5.93;;;;;;;;;;5092078;28;20469;-75
2021/05/31 12:31:36;;;;;;;7.10;5.25;;;;;;;;;;5094182;28;20380;-71
2021/05/31 12:34:02;;;;;;;6.10;5.50;;;;;;;;;;5094385;28;20032;-72
2021/05/31 12:36:29;;;;;;;7.45;5.68;;;;;;;;;;5092735;28;20465;-72
2021/05/31 12:38:55;;;;;;;6.30;5.80;;;;;;;;;;5092805;28;20059;-73
2021/05/31 12:41:21;;;;;;;5.57;5.05;;;;;;;;;;5094183;28;20028;-76
2021/05/31 12:43:47;;;;;;;7.72;5.53;;;;;;;;;;5093883;28;20109;-75
2021/05/31 12:46:16;;;;;;;6.35;5.20;;;;;;;;;;5094004;28;20032;-73
2021/05/31 12:48:42;;;;;;;8.40;5.60;;;;;;;;;;5092068;28;20059;-72
2021/05/31 12:51:16;;;;;;;5.95;5.35;;;;;;;;;;5094020;28;20024;-71
2021/05/31 12:53:42;;;;;;;10.30;5.20;;;;;;;;;;5093674;28;20382;-72
2021/05/31 12:56:08;;;;;;;8.73;5.80;;;;;;;;;;5096942;28;20031;-74
2021/05/31 12:58:34;;;;;;;14.20;5.68;;;;;;;;;;5101363;28;20102;-73
2021/05/31 13:01:00;;;;;;;5.55;4.97;;;;;;;;;;5102807;28;20020;-72
2021/05/31 13:03:30;;;;;;;6.38;5.53;;;;;;;;;;5104373;28;20093;-72
2021/05/31 13:05:56;;;;;;;6.07;5.47;;;;;;;;;;5101665;28;20052;-73
2021/05/31 13:08:22;;;;;;;6.28;5.20;;;;;;;;;;5102097;28;20059;-72
2021/05/31 13:10:49;;;;;;;6.78;5.30;;;;;;;;;;5102569;28;20020;-74
2021/05/31 13:13:19;;;;;;;11.00;5.18;;;;;;;;;;5100269;28;20662;-79
2021/05/31 13:15:47;;;;;;;5.82;5.07;;;;;;;;;;5100735;28;20076;-71
2021/05/31 13:18:28;;;;;;;7.28;5.57;;;;;;;;;;5103994;28;20043;-71
2021/05/31 13:21:12;;;;;;;8.27;5.53;;;;;;;;;;5100297;28;20051;-72
2021/05/31 13:23:38;;;;;;;5.70;5.20;;;;;;;;;;5100806;28;20460;-72
2021/05/31 13:26:10;;;;;;;9.02;4.68;;;;;;;;;;5103765;28;20023;-70
2021/05/31 13:28:38;;;;;;;7.03;6.20;;;;;;;;;;5103360;28;20082;-72
2021/05/31 13:31:04;;;;;;;7.47;5.65;;;;;;;;;;5100904;28;20023;-73
2021/05/31 13:33:30;;;;;;;5.50;4.78;;;;;;;;;;5102624;28;20026;-74
2021/05/31 13:35:58;;;;;;;7.75;4.90;;;;;;;;;;5104675;28;20028;-72
2021/05/31 13:38:27;;;;;;;4.65;4.25;;;;;;;;;;5104723;28;20035;-72
2021/05/31 13:40:54;;;;;;;5.32;4.93;;;;;;;;;;5107228;28;20030;-74
2021/05/31 13:43:21;;;;;;;5.78;5.18;;;;;;;;;;5107585;28;20047;-75
2021/05/31 13:45:49;;;;;;;5.43;4.93;;;;;;;;;;5105426;28;20020;-75
2021/05/31 13:48:15;;;;;;;7.68;4.95;;;;;;;;;;5104032;28;20032;-75
2021/05/31 13:50:42;;;;;;;8.18;5.18;;;;;;;;;;5106441;28;20122;-73
2021/05/31 13:53:08;;;;;;;5.90;4.82;;;;;;;;;;5106378;28;20480;-73
2021/05/31 13:55:35;;;;;;;6.07;5.15;;;;;;;;;;5095400;28;20024;-75
2021/05/31 13:58:01;;;;;;;10.38;5.13;;;;;;;;;;5106839;28;20043;-74
2021/05/31 14:00:29;;;;;;;6.10;4.45;;;;;;;;;;5105427;28;20028;-75
2021/05/31 14:02:56;;;;;;;7.50;4.85;;;;;;;;;;5104570;28;20028;-76
2021/05/31 14:05:23;;;;;;;6.00;4.25;;;;;;;;;;5106234;28;20034;-75
2021/05/31 14:07:50;;;;;;;6.68;4.88;;;;;;;;;;5106121;28;20377;-80
2021/05/31 14:10:16;;;;;;;6.20;4.78;;;;;;;;;;5104379;28;20028;-73
2021/05/31 14:12:42;;;;;;;7.93;4.70;;;;;;;;;;5106426;28;20421;-74
2021/05/31 14:15:09;;;;;;;6.60;4.70;;;;;;;;;;5105778;28;20021;-73
2021/05/31 14:17:35;;;;;;;5.68;5.07;;;;;;;;;;5104202;28;20051;-75
2021/05/31 14:20:01;;;;;;;5.95;4.93;;;;;;;;;;5106528;28;20035;-77
2021/05/31 14:22:28;;;;;;;5.30;4.80;;;;;;;;;;5105091;28;20031;-79
2021/05/31 14:24:54;;;;;;;6.35;5.75;;;;;;;;;;5104566;28;20023;-78
2021/05/31 14:27:20;;;;;;;4.72;4.30;;;;;;;;;;5106580;28;20373;-73
2021/05/31 14:29:46;;;;;;;5.00;4.50;;;;;;;;;;5106486;28;20023;-72
2021/05/31 14:32:12;;;;;;;7.22;5.55;;;;;;;;;;5104113;28;20070;-72
2021/05/31 14:34:38;;;;;;;5.90;5.20;;;;;;;;;;5104915;28;20134;-69
2021/05/31 14:37:05;;;;;;;7.00;5.22;;;;;;;;;;5097447;28;20024;-72
2021/05/31 14:39:31;;;;;;;16.05;5.72;;;;;;;;;;5104641;28;20078;-73
2021/05/31 14:41:57;;;;;;;16.63;6.35;;;;;;;;;;5114518;28;20032;-74
2021/05/31 14:44:23;;;;;;;44.40;8.65;;;;;;;;;;5115410;28;20032;-73
2021/05/31 14:46:49;;;;;;;13.05;5.50;;;;;;;;;;5115210;28;20115;-73